createdAt,value
2024-04-22T00:00:39.550Z,95725.53
2024-04-22T00:01:44.465Z,95717.38
2024-04-22T00:02:50.324Z,95726.34
2024-04-22T00:03:52.791Z,95728.28
2024-04-22T00:04:55.263Z,95727.50
2024-04-22T00:06:00.245Z,95727.50
2024-04-22T00:07:02.589Z,95724.00
2024-04-22T00:08:07.423Z,95717.38
2024-04-22T00:09:09.765Z,95720.53
2024-04-22T00:10:14.984Z,95725.22
2024-04-22T00:11:19.043Z,95726.38
2024-04-22T00:12:21.480Z,95718.97
2024-04-22T00:13:29.561Z,95722.47
2024-04-22T00:15:04.906Z,95720.91
2024-04-22T00:16:08.536Z,95718.19
2024-04-22T00:17:14.161Z,95719.38
2024-04-22T00:18:29.355Z,95714.69
2024-04-22T00:19:40.732Z,95716.66
2024-04-22T00:21:19.900Z,95709.66
2024-04-22T00:22:23.119Z,95717.81
2024-04-22T00:23:52.250Z,95716.66
2024-04-22T00:25:04.386Z,95716.66
2024-04-22T00:26:07.236Z,95721.31
2024-04-22T00:27:23.745Z,95721.31
2024-04-22T00:28:33.793Z,95715.88
2024-04-22T00:29:45.057Z,95724.84
2024-04-22T00:30:59.386Z,95715.88
2024-04-22T00:32:05.932Z,95719.78
2024-04-22T00:33:12.981Z,95713.56
2024-04-22T00:34:16.256Z,95711.25
2024-04-22T00:35:26.419Z,95718.66
2024-04-22T00:36:38.454Z,95716.69
2024-04-22T00:37:46.120Z,95715.94
2024-04-22T00:39:07.772Z,95713.19
2024-04-22T00:40:15.937Z,95709.72
2024-04-22T00:41:18.892Z,95717.09
2024-04-22T00:42:23.814Z,95710.09
2024-04-22T00:43:35.004Z,95705.84
2024-04-22T00:45:02.618Z,95706.63
2024-04-22T00:46:06.634Z,95707.00
2024-04-22T00:48:13.056Z,95709.75
2024-04-22T00:49:18.840Z,95708.22
2024-04-22T00:50:22.359Z,95707.38
2024-04-22T00:51:27.414Z,95712.84
2024-04-22T00:52:31.537Z,95716.00
2024-04-22T00:53:35.934Z,95703.88
2024-04-22T00:54:40.782Z,95710.53
2024-04-22T00:55:43.833Z,95707.81
2024-04-22T00:56:48.394Z,95711.31
2024-04-22T00:57:51.452Z,95699.63
2024-04-22T00:59:03.438Z,95704.31
2024-04-22T01:00:07.656Z,95703.53
2024-04-22T01:01:12.496Z,95709.78
2024-04-22T01:02:15.044Z,95703.53
2024-04-22T01:03:20.279Z,95704.72
2024-04-22T01:04:25.472Z,95708.59
2024-04-22T01:05:27.853Z,95707.44
2024-04-22T01:06:30.310Z,95708.59
2024-04-22T01:07:35.619Z,95700.84
2024-04-22T01:08:37.970Z,95704.75
2024-04-22T01:09:42.231Z,95711.00
2024-04-22T01:10:45.261Z,95708.25
2024-04-22T01:11:51.633Z,95706.72
2024-04-22T01:12:53.930Z,95706.72
2024-04-22T01:13:59.327Z,95705.16
2024-04-22T01:15:05.179Z,95712.16
2024-04-22T01:16:10.460Z,95706.72
2024-04-22T01:17:12.685Z,95711.38
2024-04-22T01:18:31.734Z,95707.91
2024-04-22T01:19:34.324Z,95707.91
2024-04-22T01:20:41.336Z,95709.06
2024-04-22T01:21:46.086Z,95707.53
2024-04-22T01:22:48.383Z,95707.53
2024-04-22T01:23:52.632Z,95703.25
2024-04-22T01:24:59.406Z,95699.34
2024-04-22T01:26:06.912Z,95706.34
2024-04-22T01:27:10.062Z,95705.16
2024-04-22T01:28:14.775Z,95703.59
2024-04-22T01:29:19.711Z,95703.59
2024-04-22T01:30:22.104Z,95709.06
2024-04-22T01:31:26.452Z,95705.97
2024-04-22T01:32:29.226Z,95701.31
2024-04-22T01:33:34.176Z,95705.97
2024-04-22T01:34:36.634Z,95704.44
2024-04-22T01:35:39.016Z,95697.44
2024-04-22T01:36:51.013Z,95697.44
2024-04-22T01:37:53.413Z,95705.59
2024-04-22T01:38:57.415Z,95704.06
2024-04-22T01:40:15.820Z,95706.78
2024-04-22T01:42:45.394Z,95706.81
2024-04-22T01:43:48.735Z,95700.59
2024-04-22T01:45:05.151Z,95706.81
2024-04-22T01:46:08.787Z,95707.63
2024-04-22T01:47:15.043Z,95695.91
2024-04-22T01:48:23.120Z,95704.53
2024-04-22T01:49:26.347Z,95706.06
2024-04-22T01:52:02.054Z,95706.06
2024-04-22T01:53:07.876Z,95701.44
2024-04-22T01:55:30.789Z,95699.09
2024-04-22T01:57:19.897Z,95700.69
2024-04-22T01:59:31.099Z,95703.81
2024-04-22T02:00:42.587Z,95700.31
2024-04-22T02:01:56.012Z,95705.38
2024-04-22T02:03:02.853Z,95710.47
2024-04-22T02:04:08.431Z,95705.84
2024-04-22T02:05:33.803Z,95703.88
2024-04-22T02:06:40.691Z,95700.00
2024-04-22T02:15:12.904Z,95704.69
2024-04-22T02:16:37.718Z,95704.69
2024-04-22T02:17:43.197Z,95700.78
2024-04-22T02:19:57.600Z,95692.97
2024-04-22T02:25:14.158Z,95700.75
2024-04-22T02:30:04.143Z,95700.16
2024-04-22T02:31:11.924Z,95699.38
2024-04-22T02:32:21.448Z,95694.75
2024-04-22T02:33:24.416Z,95700.94
2024-04-22T02:34:29.562Z,95698.59
2024-04-22T02:35:32.399Z,95697.78
2024-04-22T02:36:37.054Z,95702.06
2024-04-22T02:37:44.844Z,95697.75
2024-04-22T02:38:47.543Z,95698.88
2024-04-22T02:39:50.326Z,95699.25
2024-04-22T02:40:53.293Z,95701.59
2024-04-22T02:42:12.778Z,95696.13
2024-04-22T02:44:09.470Z,95695.41
2024-04-22T02:45:53.822Z,95695.41
2024-04-22T02:47:07.047Z,95691.47
2024-04-22T02:48:30.064Z,95693.06
2024-04-22T02:49:32.983Z,95693.06
2024-04-22T02:50:35.639Z,95693.81
2024-04-22T02:51:40.951Z,95690.69
2024-04-22T02:53:05.029Z,95693.00
2024-04-22T02:55:26.624Z,95694.63
2024-04-22T03:02:13.977Z,95692.31
2024-04-22T03:10:30.672Z,95696.94
2024-04-22T03:11:36.374Z,95684.13
2024-04-22T03:12:39.020Z,95689.91
2024-04-22T03:13:44.940Z,95686.41
2024-04-22T03:14:50.796Z,95689.91
2024-04-22T03:15:55.795Z,95684.44
2024-04-22T03:17:01.991Z,95682.53
2024-04-22T03:18:07.731Z,95678.28
2024-04-22T03:19:16.062Z,95684.50
2024-04-22T03:20:18.934Z,95685.66
2024-04-22T03:21:24.600Z,95679.06
2024-04-22T03:22:30.429Z,95683.31
2024-04-22T03:23:33.180Z,95689.94
2024-04-22T03:24:36.245Z,95685.28
2024-04-22T03:25:41.671Z,95679.06
2024-04-22T03:26:59.027Z,95690.72
2024-04-22T03:28:07.946Z,95681.41
2024-04-22T03:37:50.263Z,95684.13
2024-04-22T03:38:55.272Z,95685.31
2024-04-22T03:40:01.539Z,95682.59
2024-04-22T03:41:05.103Z,95683.75
2024-04-22T03:42:10.768Z,95677.56
2024-04-22T03:43:15.084Z,95684.53
2024-04-22T03:44:17.411Z,95674.44
2024-04-22T03:45:22.324Z,95679.88
2024-04-22T03:46:42.443Z,95685.31
2024-04-22T03:48:03.852Z,95686.09
2024-04-22T03:49:32.250Z,95686.88
2024-04-22T03:51:04.590Z,95684.91
2024-04-22T03:52:17.296Z,95679.88
2024-04-22T03:53:20.580Z,95686.88
2024-04-22T03:54:25.272Z,95686.88
2024-04-22T03:55:30.208Z,95676.78
2024-04-22T03:56:32.991Z,95677.56
2024-04-22T03:57:38.015Z,95676.78
2024-04-22T03:58:40.300Z,95679.50
2024-04-22T03:59:44.848Z,95682.22
2024-04-22T04:00:49.790Z,95676.03
2024-04-22T04:02:01.049Z,95678.78
2024-04-22T04:03:04.975Z,95682.31
2024-04-22T04:04:18.612Z,95678.47
2024-04-22T04:10:10.077Z,95678.84
2024-04-22T04:11:20.181Z,95684.66
2024-04-22T04:12:22.649Z,95680.75
2024-04-22T04:13:27.689Z,95683.47
2024-04-22T04:14:30.096Z,95683.47
2024-04-22T04:15:34.098Z,95683.47
2024-04-22T04:16:40.204Z,95686.19
2024-04-22T04:17:58.600Z,95688.16
2024-04-22T04:19:03.741Z,95691.66
2024-04-22T04:20:07.720Z,95687.75
2024-04-22T04:21:13.744Z,95690.81
2024-04-22T04:22:21.635Z,95688.09
2024-04-22T04:23:33.661Z,95692.78
2024-04-22T04:24:38.890Z,95691.63
2024-04-22T04:25:55.639Z,95685.38
2024-04-22T04:27:04.867Z,95699.38
2024-04-22T04:29:03.128Z,95701.72
2024-04-22T04:31:01.697Z,95704.44
2024-04-22T04:38:24.614Z,95700.19
2024-04-22T04:39:27.287Z,95706.41
2024-04-22T04:40:29.988Z,95705.63
2024-04-22T04:41:37.763Z,95707.97
2024-04-22T04:42:40.129Z,95713.06
2024-04-22T04:43:44.666Z,95705.72
2024-04-22T04:44:46.880Z,95717.75
2024-04-22T04:45:52.952Z,95705.34
2024-04-22T04:46:55.266Z,95713.53
2024-04-22T04:47:57.579Z,95714.34
2024-04-22T04:49:02.535Z,95719.03
2024-04-22T04:50:08.258Z,95716.28
2024-04-22T04:51:10.501Z,95717.06
2024-04-22T04:52:13.059Z,95719.41
2024-04-22T04:53:16.039Z,95718.97
2024-04-22T04:54:23.050Z,95717.03
2024-04-22T04:55:25.412Z,95720.53
2024-04-22T04:56:27.672Z,95721.31
2024-04-22T04:57:35.268Z,95721.31
2024-04-22T04:58:37.566Z,95721.31
2024-04-22T04:59:43.734Z,95722.84
2024-04-22T05:00:48.693Z,95724.41
2024-04-22T05:01:53.227Z,95722.84
2024-04-22T05:02:55.630Z,95732.19
2024-04-22T05:03:59.204Z,95731.00
2024-04-22T05:05:06.264Z,95731.00
2024-04-22T05:06:08.541Z,95724.41
2024-04-22T05:07:13.093Z,95727.88
2024-04-22T05:08:19.712Z,95724.41
2024-04-22T05:09:22.225Z,95730.59
2024-04-22T05:10:26.810Z,95731.50
2024-04-22T05:11:29.649Z,95729.94
2024-04-22T05:12:37.261Z,95729.59
2024-04-22T05:13:39.786Z,95728.53
2024-04-22T05:14:48.175Z,95727.78
2024-04-22T05:15:52.739Z,95732.41
2024-04-22T05:16:57.633Z,95728.09
2024-04-22T05:17:59.948Z,95730.44
2024-04-22T05:19:04.907Z,95743.28
2024-04-22T05:20:07.710Z,95725.38
2024-04-22T05:21:11.998Z,95732.34
2024-04-22T05:22:14.283Z,95735.50
2024-04-22T05:23:19.091Z,95737.78
2024-04-22T05:24:21.636Z,95741.28
2024-04-22T05:25:23.869Z,95730.44
2024-04-22T05:26:30.727Z,95727.47
2024-04-22T05:27:36.124Z,95734.09
2024-04-22T05:28:38.367Z,95742.22
2024-04-22T05:29:40.832Z,95735.31
2024-04-22T05:30:48.820Z,95741.19
2024-04-22T05:32:19.380Z,95731.00
2024-04-22T05:33:40.237Z,95743.81
2024-04-22T05:35:04.518Z,95743.75
2024-04-22T05:36:16.408Z,95739.44
2024-04-22T05:37:21.117Z,95742.53
2024-04-22T05:38:26.193Z,95744.06
2024-04-22T05:39:34.045Z,95751.06
2024-04-22T05:40:38.965Z,95742.91
2024-04-22T05:41:45.436Z,95743.28
2024-04-22T05:42:55.268Z,95747.91
2024-04-22T05:43:57.504Z,95742.97
2024-04-22T05:44:59.779Z,95738.69
2024-04-22T05:46:06.873Z,95742.53
2024-04-22T05:47:09.837Z,95732.78
2024-04-22T05:48:17.139Z,95738.63
2024-04-22T05:49:19.481Z,95743.28
2024-04-22T05:50:21.936Z,95741.31
2024-04-22T05:51:31.795Z,95737.78
2024-04-22T05:52:37.379Z,95730.25
2024-04-22T05:53:44.564Z,95744.19
2024-04-22T05:55:18.427Z,95744.25
2024-04-22T05:56:40.608Z,95739.53
2024-04-22T05:57:47.858Z,95734.84
2024-04-22T05:58:56.376Z,95741.03
2024-04-22T05:59:59.038Z,95730.13
2024-04-22T06:01:07.896Z,95738.25
2024-04-22T06:02:10.692Z,95738.63
2024-04-22T06:03:13.379Z,95740.56
2024-04-22T06:04:20.661Z,95739.38
2024-04-22T06:05:23.138Z,95748.69
2024-04-22T06:06:25.404Z,95742.53
2024-04-22T06:07:27.821Z,95739.44
2024-04-22T06:08:35.042Z,95736.72
2024-04-22T06:09:39.560Z,95746.41
2024-04-22T06:10:42.487Z,95744.06
2024-04-22T06:11:53.515Z,95744.44
2024-04-22T06:13:07.928Z,95744.03
2024-04-22T06:14:12.952Z,95748.72
2024-04-22T06:15:55.896Z,95743.38
2024-04-22T06:18:44.740Z,95748.22
2024-04-22T06:19:47.113Z,95746.25
2024-04-22T06:20:51.934Z,95751.28
2024-04-22T06:21:56.936Z,95754.75
2024-04-22T06:22:59.214Z,95745.41
2024-04-22T06:24:01.646Z,95738.00
2024-04-22T06:25:04.731Z,95750.06
2024-04-22T06:26:12.026Z,95747.34
2024-04-22T06:27:15.317Z,95747.00
2024-04-22T06:28:17.711Z,95744.69
2024-04-22T06:29:22.678Z,95747.91
2024-04-22T06:30:25.045Z,95751.41
2024-04-22T06:31:32.186Z,95746.72
2024-04-22T06:32:36.641Z,95753.34
2024-04-22T06:33:42.157Z,95739.75
2024-04-22T06:34:47.202Z,95740.13
2024-04-22T06:35:49.450Z,95748.28
2024-04-22T06:36:53.962Z,95745.16
2024-04-22T06:37:56.350Z,95740.88
2024-04-22T06:39:01.367Z,95746.31
2024-04-22T06:40:04.342Z,95750.25
2024-04-22T06:41:06.990Z,95753.34
2024-04-22T06:42:12.437Z,95750.19
2024-04-22T06:43:18.588Z,95753.28
2024-04-22T06:44:23.571Z,95748.59
2024-04-22T06:45:25.996Z,95752.91
2024-04-22T06:46:28.305Z,95746.31
2024-04-22T06:47:35.613Z,95749.41
2024-04-22T06:48:38.058Z,95745.50
2024-04-22T06:49:40.481Z,95748.22
2024-04-22T06:50:46.869Z,95748.22
2024-04-22T06:51:49.342Z,95745.09
2024-04-22T06:52:54.620Z,95744.31
2024-04-22T06:53:59.597Z,95745.50
2024-04-22T06:55:01.888Z,95748.59
2024-04-22T06:56:04.987Z,95743.16
2024-04-22T06:57:09.984Z,95743.16
2024-04-22T06:58:15.027Z,95744.59
2024-04-22T06:59:17.371Z,95750.09
2024-04-22T07:00:22.276Z,95744.31
2024-04-22T07:01:35.017Z,95748.59
2024-04-22T07:02:42.101Z,95749.34
2024-04-22T07:03:46.517Z,95747.81
2024-04-22T07:04:52.452Z,95752.84
2024-04-22T07:05:54.869Z,95756.38
2024-04-22T07:06:57.214Z,95748.97
2024-04-22T07:07:59.505Z,95757.13
2024-04-22T07:09:11.339Z,95751.31
2024-04-22T07:10:14.188Z,95748.97
2024-04-22T07:11:16.585Z,95753.22
2024-04-22T07:12:21.632Z,95750.50
2024-04-22T07:13:24.050Z,95754.00
2024-04-22T07:14:28.399Z,95755.94
2024-04-22T07:15:36.166Z,95754.78
2024-04-22T07:16:43.664Z,95752.06
2024-04-22T07:17:46.114Z,95762.53
2024-04-22T07:18:53.189Z,95751.66
2024-04-22T07:19:58.666Z,95759.41
2024-04-22T07:21:01.015Z,95753.22
2024-04-22T07:22:06.192Z,95767.59
2024-04-22T07:23:08.932Z,95759.41
2024-04-22T07:24:11.908Z,95764.88
2024-04-22T07:25:17.763Z,95758.66
2024-04-22T07:26:22.789Z,95766.00
2024-04-22T07:27:27.655Z,95765.63
2024-04-22T07:28:30.698Z,95760.16
2024-04-22T07:29:33.841Z,95765.63
2024-04-22T07:30:44.698Z,95769.50
2024-04-22T07:31:48.752Z,95772.63
2024-04-22T07:32:51.849Z,95767.22
2024-04-22T07:33:57.706Z,95764.19
2024-04-22T07:35:00.700Z,95766.91
2024-04-22T07:36:19.149Z,95761.84
2024-04-22T07:37:30.315Z,95772.72
2024-04-22T07:38:36.039Z,95768.81
2024-04-22T07:39:42.303Z,95770.38
2024-04-22T07:41:22.342Z,95773.88
2024-04-22T07:42:49.720Z,95768.03
2024-04-22T07:44:48.187Z,95767.22
2024-04-22T07:46:46.749Z,95772.66
2024-04-22T07:57:32.406Z,95776.50
2024-04-22T07:58:38.732Z,95778.03
2024-04-22T07:59:41.714Z,95777.66
2024-04-22T08:00:48.004Z,95776.50
2024-04-22T08:01:51.071Z,95784.69
2024-04-22T08:02:53.837Z,95773.78
2024-04-22T08:04:01.578Z,95775.31
2024-04-22T08:05:07.438Z,95777.28
2024-04-22T08:06:12.151Z,95785.06
2024-04-22T08:07:16.382Z,95780.38
2024-04-22T08:08:20.489Z,95782.72
2024-04-22T08:09:27.733Z,95783.84
2024-04-22T08:10:30.147Z,95781.13
2024-04-22T08:11:32.938Z,95783.47
2024-04-22T08:12:38.735Z,95784.22
2024-04-22T08:13:46.224Z,95785.44
2024-04-22T08:14:50.598Z,95784.22
2024-04-22T08:15:55.341Z,95795.13
2024-04-22T08:16:57.830Z,95788.53
2024-04-22T08:18:02.858Z,95787.78
2024-04-22T08:19:07.852Z,95783.09
2024-04-22T08:20:12.275Z,95780.38
2024-04-22T08:21:17.272Z,95785.06
2024-04-22T08:22:19.778Z,95789.69
2024-04-22T08:23:23.105Z,95784.31
2024-04-22T08:24:26.319Z,95777.28
2024-04-22T08:25:33.362Z,95783.09
2024-04-22T08:26:55.714Z,95774.19
2024-04-22T08:27:58.011Z,95771.06
2024-04-22T08:29:00.445Z,95780.75
2024-04-22T08:30:05.837Z,95782.31
2024-04-22T08:31:10.166Z,95783.09
2024-04-22T08:32:12.576Z,95775.72
2024-04-22T08:33:14.832Z,95781.13
2024-04-22T08:34:24.785Z,95781.19
2024-04-22T08:35:27.177Z,95771.81
2024-04-22T08:36:31.512Z,95775.69
2024-04-22T08:37:33.835Z,95770.25
2024-04-22T08:38:38.882Z,95782.69
2024-04-22T08:39:43.099Z,95778.78
2024-04-22T08:40:46.091Z,95771.00
2024-04-22T08:41:53.148Z,95775.63
2024-04-22T08:42:57.640Z,95772.53
2024-04-22T08:44:00.009Z,95774.09
2024-04-22T08:45:02.355Z,95771.00
2024-04-22T08:46:08.118Z,95777.19
2024-04-22T08:47:12.739Z,95778.31
2024-04-22T08:48:15.357Z,95771.28
2024-04-22T08:49:20.393Z,95782.97
2024-04-22T08:50:25.740Z,95770.47
2024-04-22T08:51:28.523Z,95772.44
2024-04-22T08:52:40.387Z,95776.31
2024-04-22T08:53:55.359Z,95774.72
2024-04-22T08:54:58.141Z,95772.75
2024-04-22T08:56:00.647Z,95773.94
2024-04-22T08:57:06.156Z,95773.50
2024-04-22T08:58:11.210Z,95772.34
2024-04-22T08:59:21.823Z,95780.91
2024-04-22T09:00:34.857Z,95773.50
2024-04-22T09:01:37.521Z,95781.69
2024-04-22T09:02:40.832Z,95781.69
2024-04-22T09:03:45.605Z,95781.69
2024-04-22T09:04:53.429Z,95777.78
2024-04-22T09:05:56.412Z,95780.59
2024-04-22T09:07:01.202Z,95778.66
2024-04-22T09:08:06.134Z,95781.69
2024-04-22T09:09:19.276Z,95791.03
2024-04-22T09:10:55.744Z,95793.31
2024-04-22T09:12:08.221Z,95788.63
2024-04-22T09:13:17.363Z,95790.16
2024-04-22T09:14:22.177Z,95787.78
2024-04-22T09:15:25.072Z,95786.63
2024-04-22T09:16:30.692Z,95781.56
2024-04-22T09:17:33.433Z,95781.19
2024-04-22T09:18:41.863Z,95790.13
2024-04-22T09:19:46.585Z,95774.53
2024-04-22T09:20:54.735Z,95787.00
2024-04-22T09:21:58.981Z,95771.41
2024-04-22T09:23:01.648Z,95776.09
2024-04-22T09:24:09.736Z,95787.00
2024-04-22T09:25:15.520Z,95778.16
2024-04-22T09:26:37.474Z,95777.50
2024-04-22T09:28:19.887Z,95776.59
2024-04-22T09:30:01.644Z,95780.84
2024-04-22T09:37:32.061Z,95764.38
2024-04-22T09:38:44.218Z,95769.00
2024-04-22T09:39:54.016Z,95769.47
2024-04-22T09:40:58.358Z,95772.94
2024-04-22T09:42:02.703Z,95771.81
2024-04-22T09:43:08.320Z,95774.53
2024-04-22T09:44:16.438Z,95771.91
2024-04-22T09:45:21.429Z,95764.78
2024-04-22T09:46:27.380Z,95765.22
2024-04-22T09:47:31.592Z,95777.28
2024-04-22T09:48:40.210Z,95766.00
2024-04-22T09:49:44.592Z,95767.56
2024-04-22T09:50:49.155Z,95769.09
2024-04-22T09:51:52.160Z,95769.47
2024-04-22T09:53:00.976Z,95765.97
2024-04-22T09:54:09.109Z,95761.28
2024-04-22T09:55:11.319Z,95758.94
2024-04-22T09:56:20.476Z,95761.66
2024-04-22T09:57:26.014Z,95769.47
2024-04-22T09:58:31.427Z,95764.00
2024-04-22T09:59:36.146Z,95758.16
2024-04-22T10:00:39.059Z,95760.88
2024-04-22T10:01:44.453Z,95754.31
2024-04-22T10:02:47.339Z,95759.03
2024-04-22T10:03:50.572Z,95760.53
2024-04-22T10:04:57.992Z,95753.94
2024-04-22T10:06:04.773Z,95751.59
2024-04-22T10:07:08.338Z,95757.44
2024-04-22T10:08:15.955Z,95754.31
2024-04-22T10:09:18.505Z,95748.84
2024-04-22T10:10:23.088Z,95746.84
2024-04-22T10:11:31.211Z,95744.13
2024-04-22T10:12:37.200Z,95740.97
2024-04-22T10:13:39.758Z,95742.50
2024-04-22T10:14:42.256Z,95741.31
2024-04-22T10:15:49.548Z,95740.16
2024-04-22T10:16:55.021Z,95745.19
2024-04-22T10:17:57.939Z,95743.25
2024-04-22T10:19:00.366Z,95740.91
2024-04-22T10:20:06.183Z,95734.63
2024-04-22T10:21:12.531Z,95741.63
2024-04-22T10:22:15.888Z,95739.25
2024-04-22T10:23:23.906Z,95734.63
2024-04-22T10:24:39.778Z,95742.41
2024-04-22T10:25:42.415Z,95742.28
2024-04-22T10:26:56.517Z,95738.47
2024-04-22T10:28:05.768Z,95737.44
2024-04-22T10:29:11.018Z,95737.00
2024-04-22T10:30:13.224Z,95732.28
2024-04-22T10:31:19.694Z,95736.16
2024-04-22T10:32:26.706Z,95733.03
2024-04-22T10:33:29.016Z,95729.56
2024-04-22T10:34:31.642Z,95734.69
2024-04-22T10:35:34.258Z,95728.81
2024-04-22T10:36:36.531Z,95734.63
2024-04-22T10:37:43.838Z,95736.16
2024-04-22T10:38:49.025Z,95735.47
2024-04-22T10:39:53.800Z,95735.41
2024-04-22T10:40:57.840Z,95735.84
2024-04-22T10:42:02.839Z,95732.28
2024-04-22T10:43:07.650Z,95740.47
2024-04-22T10:44:10.118Z,95740.47
2024-04-22T10:45:15.146Z,95742.81
2024-04-22T10:46:17.839Z,95740.06
2024-04-22T10:47:21.122Z,95735.38
2024-04-22T10:48:28.285Z,95739.25
2024-04-22T10:49:30.975Z,95739.72
2024-04-22T10:50:33.405Z,95733.81
2024-04-22T10:51:35.662Z,95733.41
2024-04-22T10:52:41.020Z,95729.50
2024-04-22T10:53:45.307Z,95734.53
2024-04-22T10:54:53.232Z,95736.44
2024-04-22T10:55:56.178Z,95728.28
2024-04-22T10:57:01.295Z,95729.84
2024-04-22T10:58:03.941Z,95741.56
2024-04-22T10:59:08.363Z,95736.88
2024-04-22T11:00:14.114Z,95734.16
2024-04-22T11:01:17.115Z,95730.22
2024-04-22T11:02:19.779Z,95739.19
2024-04-22T11:03:23.026Z,95735.28
2024-04-22T11:04:30.489Z,95732.19
2024-04-22T11:05:33.263Z,95735.28
2024-04-22T11:06:38.110Z,95737.63
2024-04-22T11:07:43.111Z,95734.88
2024-04-22T11:08:45.512Z,95738.75
2024-04-22T11:09:55.072Z,95734.44
2024-04-22T11:11:00.963Z,95735.22
2024-04-22T11:12:04.086Z,95732.09
2024-04-22T11:13:07.893Z,95733.28
2024-04-22T11:14:14.127Z,95736.41
2024-04-22T11:15:18.538Z,95736.38
2024-04-22T11:16:35.334Z,95737.94
2024-04-22T11:17:40.623Z,95731.38
2024-04-22T11:18:43.805Z,95732.09
2024-04-22T11:19:46.266Z,95732.94
2024-04-22T11:20:50.793Z,95733.66
2024-04-22T11:21:55.841Z,95725.47
2024-04-22T11:22:58.195Z,95724.66
2024-04-22T11:24:00.669Z,95728.91
2024-04-22T11:25:09.565Z,95734.72
2024-04-22T11:26:14.169Z,95733.56
2024-04-22T11:27:16.728Z,95728.13
2024-04-22T11:28:19.712Z,95731.97
2024-04-22T11:29:24.838Z,95727.28
2024-04-22T11:30:27.484Z,95731.91
2024-04-22T11:31:38.209Z,95732.34
2024-04-22T11:32:40.968Z,95731.53
2024-04-22T11:33:46.167Z,95726.47
2024-04-22T11:34:48.546Z,95731.16
2024-04-22T11:35:51.325Z,95720.31
2024-04-22T11:36:59.735Z,95725.38
2024-04-22T11:38:02.065Z,95730.47
2024-04-22T11:39:12.429Z,95717.59
2024-04-22T11:40:20.113Z,95723.78
2024-04-22T11:41:22.569Z,95718.75
2024-04-22T11:42:27.066Z,95731.25
2024-04-22T11:43:29.462Z,95718.75
2024-04-22T11:44:31.743Z,95710.91
2024-04-22T11:45:36.683Z,95711.31
2024-04-22T11:46:40.815Z,95717.16
2024-04-22T11:47:45.459Z,95710.09
2024-04-22T11:48:50.865Z,95709.38
2024-04-22T11:49:55.743Z,95702.75
2024-04-22T11:50:58.056Z,95710.91
2024-04-22T11:52:02.997Z,95704.63
2024-04-22T11:53:14.895Z,95707.78
2024-04-22T11:54:23.973Z,95703.09
2024-04-22T11:55:31.655Z,95695.41
2024-04-22T11:56:37.075Z,95702.75
2024-04-22T11:57:42.315Z,95702.38
2024-04-22T11:58:49.537Z,95708.94
2024-04-22T11:59:53.846Z,95707.78
2024-04-22T12:00:56.102Z,95706.19
2024-04-22T12:02:01.031Z,95702.34
2024-04-22T12:03:05.530Z,95707.06
2024-04-22T12:04:10.235Z,95712.56
2024-04-22T12:05:14.582Z,95707.84
2024-04-22T12:06:19.979Z,95699.19
2024-04-22T12:07:22.375Z,95696.81
2024-04-22T12:08:24.676Z,95701.38
2024-04-22T12:09:29.092Z,95697.34
2024-04-22T12:10:36.917Z,95697.78
2024-04-22T12:11:39.308Z,95695.97
2024-04-22T12:12:41.713Z,95691.69
2024-04-22T12:13:44.207Z,95694.94
2024-04-22T12:14:51.566Z,95690.19
2024-04-22T12:15:55.896Z,95694.47
2024-04-22T12:16:58.245Z,95692.09
2024-04-22T12:18:00.818Z,95690.50
2024-04-22T12:19:05.837Z,95699.06
2024-04-22T12:20:11.687Z,95691.28
2024-04-22T12:21:13.976Z,95694.81
2024-04-22T12:22:16.220Z,95692.47
2024-04-22T12:23:21.290Z,95685.13
2024-04-22T12:24:23.570Z,95691.06
2024-04-22T12:25:27.966Z,95688.25
2024-04-22T12:26:35.292Z,95693.72
2024-04-22T12:27:40.254Z,95689.38
2024-04-22T12:28:42.593Z,95684.28
2024-04-22T12:29:46.023Z,95688.91
2024-04-22T12:30:52.532Z,95693.19
2024-04-22T12:31:57.764Z,95690.13
2024-04-22T12:33:00.198Z,95687.00
2024-04-22T12:34:12.002Z,95684.22
2024-04-22T12:35:16.295Z,95686.94
2024-04-22T12:36:23.346Z,95680.69
2024-04-22T12:37:25.692Z,95682.97
2024-04-22T12:38:28.065Z,95678.72
2024-04-22T12:39:31.281Z,95678.72
2024-04-22T12:40:37.024Z,95681.16
2024-04-22T12:41:44.355Z,95677.63
2024-04-22T12:42:46.809Z,95676.47
2024-04-22T12:43:49.211Z,95681.91
2024-04-22T12:44:55.218Z,95679.19
2024-04-22T12:45:57.573Z,95679.66
2024-04-22T12:47:20.853Z,95683.44
2024-04-22T12:48:41.529Z,95678.34
2024-04-22T12:50:02.477Z,95675.63
2024-04-22T12:51:09.700Z,95676.75
2024-04-22T12:52:14.801Z,95671.66
2024-04-22T12:53:20.155Z,95673.22
2024-04-22T12:54:22.583Z,95662.66
2024-04-22T12:55:24.926Z,95679.81
2024-04-22T12:56:29.824Z,95661.47
2024-04-22T12:57:38.863Z,95669.25
2024-04-22T12:59:37.439Z,95661.41
2024-04-22T13:01:19.726Z,95657.63
2024-04-22T13:05:19.075Z,95650.59
2024-04-22T13:07:20.087Z,95647.19
2024-04-22T13:09:19.036Z,95654.56
2024-04-22T13:11:01.759Z,95645.16
2024-04-22T13:13:05.426Z,95650.31
2024-04-22T13:15:07.168Z,95659.91
2024-04-22T13:16:30.697Z,95651.44
2024-04-22T13:17:36.866Z,95652.16
2024-04-22T13:18:42.019Z,95651.75
2024-04-22T13:19:45.312Z,95649.81
2024-04-22T13:20:47.773Z,95652.91
2024-04-22T13:21:50.174Z,95650.50
2024-04-22T13:22:57.192Z,95644.28
2024-04-22T13:24:18.747Z,95648.19
2024-04-22T13:25:21.635Z,95641.16
2024-04-22T13:26:26.610Z,95641.16
2024-04-22T13:27:29.293Z,95643.88
2024-04-22T13:28:35.140Z,95648.13
2024-04-22T13:29:40.804Z,95642.69
2024-04-22T13:30:45.714Z,95638.78
2024-04-22T13:31:51.896Z,95639.59
2024-04-22T13:32:55.378Z,95642.78
2024-04-22T13:33:59.789Z,95643.50
2024-04-22T13:35:04.674Z,95641.16
2024-04-22T13:36:07.868Z,95631.75
2024-04-22T13:37:10.199Z,95637.56
2024-04-22T13:38:20.314Z,95631.72
2024-04-22T13:39:25.234Z,95639.50
2024-04-22T13:40:27.550Z,95643.50
2024-04-22T13:41:35.239Z,95636.59
2024-04-22T13:42:41.521Z,95636.69
2024-04-22T13:43:47.669Z,95631.63
2024-04-22T13:44:55.667Z,95634.25
2024-04-22T13:46:00.661Z,95627.97
2024-04-22T13:47:05.210Z,95627.91
2024-04-22T13:48:09.126Z,95629.47
2024-04-22T13:49:12.828Z,95624.78
2024-04-22T13:50:19.813Z,95626.66
2024-04-22T13:51:22.118Z,95627.03
2024-04-22T13:52:25.717Z,95630.53
2024-04-22T13:53:32.314Z,95624.66
2024-04-22T13:54:35.106Z,95627.75
2024-04-22T13:55:39.407Z,95627.75
2024-04-22T13:56:41.699Z,95626.19
2024-04-22T13:57:48.099Z,95629.41
2024-04-22T13:58:50.460Z,95633.31
2024-04-22T13:59:55.647Z,95624.00
2024-04-22T14:01:03.110Z,95625.50
2024-04-22T14:02:05.970Z,95621.56
2024-04-22T14:03:09.016Z,95623.13
2024-04-22T14:04:11.422Z,95626.97
2024-04-22T14:05:16.426Z,95620.72
2024-04-22T14:06:20.762Z,95622.66
2024-04-22T14:07:23.118Z,95623.00
2024-04-22T14:08:25.379Z,95620.63
2024-04-22T14:09:30.348Z,95626.47
2024-04-22T14:10:33.681Z,95622.53
2024-04-22T14:11:38.638Z,95623.78
2024-04-22T14:12:41.092Z,95632.13
2024-04-22T14:13:46.252Z,95621.53
2024-04-22T14:14:49.681Z,95628.16
2024-04-22T14:15:54.695Z,95632.44
2024-04-22T14:17:00.991Z,95628.66
2024-04-22T14:18:07.755Z,95627.88
2024-04-22T14:19:10.281Z,95627.03
2024-04-22T14:20:12.677Z,95626.38
2024-04-22T14:21:15.091Z,95623.66
2024-04-22T14:22:22.078Z,95622.78
2024-04-22T14:23:24.375Z,95622.34
2024-04-22T14:24:26.714Z,95620.72
2024-04-22T14:25:29.094Z,95626.25
2024-04-22T14:26:35.408Z,95625.41